sensor_id;sensor_type;location;lat;lon;timestamp;P1;durP1;ratioP1;P2;durP2;ratioP2
5303;SDS011;2674;49.722;10.892;2022-11-18T00:01:48;13.40;;;9.07;;
5303;SDS011;2674;49.722;10.892;2022-11-18T00:04:13;28.87;;;8.30;;
5303;SDS011;2674;49.722;10.892;2022-11-18T00:06:39;11.23;;;7.40;;
5303;SDS011;2674;49.722;10.892;2022-11-18T00:09:07;12.70;;;8.30;;
5303;SDS011;2674;49.722;10.892;2022-11-18T00:11:33;10.57;;;7.73;;
5303;SDS011;2674;49.722;10.892;2022-11-18T00:14:19;10.17;;;6.63;;
5303;SDS011;2674;49.722;10.892;2022-11-18T00:19:18;18.27;;;6.90;;
5303;SDS011;2674;49.722;10.892;2022-11-18T00:21:45;9.20;;;6.30;;
5303;SDS011;2674;49.722;10.892;2022-11-18T00:24:11;11.63;;;6.87;;
5303;SDS011;2674;49.722;10.892;2022-11-18T00:26:37;8.87;;;5.67;;
5303;SDS011;2674;49.722;10.892;2022-11-18T00:29:03;7.90;;;5.43;;
5303;SDS011;2674;49.722;10.892;2022-11-18T00:31:30;11.80;;;6.00;;
5303;SDS011;2674;49.722;10.892;2022-11-18T00:33:56;14.97;;;5.60;;
5303;SDS011;2674;49.722;10.892;2022-11-18T00:36:22;9.40;;;4.90;;
5303;SDS011;2674;49.722;10.892;2022-11-18T00:38:48;8.50;;;6.50;;
5303;SDS011;2674;49.722;10.892;2022-11-18T00:41:14;12.53;;;6.07;;
5303;SDS011;2674;49.722;10.892;2022-11-18T00:43:40;9.27;;;4.77;;
5303;SDS011;2674;49.722;10.892;2022-11-18T01:46:51;8.20;;;5.43;;
5303;SDS011;2674;49.722;10.892;2022-11-18T01:49:16;6.70;;;5.00;;
5303;SDS011;2674;49.722;10.892;2022-11-18T01:51:44;9.00;;;4.50;;
5303;SDS011;2674;49.722;10.892;2022-11-18T01:54:19;8.10;;;5.20;;
5303;SDS011;2674;49.722;10.892;2022-11-18T01:56:52;7.73;;;4.77;;
5303;SDS011;2674;49.722;10.892;2022-11-18T01:59:23;6.40;;;5.20;;
5303;SDS011;2674;49.722;10.892;2022-11-18T02:01:53;11.30;;;5.60;;
5303;SDS011;2674;49.722;10.892;2022-11-18T02:04:44;6.80;;;6.10;;
5303;SDS011;2674;49.722;10.892;2022-11-18T02:07:14;7.07;;;5.20;;
5303;SDS011;2674;49.722;10.892;2022-11-18T02:09:41;7.80;;;5.03;;
5303;SDS011;2674;49.722;10.892;2022-11-18T02:12:08;6.93;;;4.90;;
5303;SDS011;2674;49.722;10.892;2022-11-18T02:14:36;9.90;;;5.80;;
5303;SDS011;2674;49.722;10.892;2022-11-18T02:17:25;12.73;;;6.93;;
5303;SDS011;2674;49.722;10.892;2022-11-18T03:48:49;13.93;;;9.77;;
5303;SDS011;2674;49.722;10.892;2022-11-18T03:51:19;14.63;;;9.83;;
5303;SDS011;2674;49.722;10.892;2022-11-18T03:53:58;16.07;;;8.40;;
5303;SDS011;2674;49.722;10.892;2022-11-18T03:56:40;11.93;;;8.20;;
5303;SDS011;2674;49.722;10.892;2022-11-18T03:59:20;20.23;;;10.33;;
5303;SDS011;2674;49.722;10.892;2022-11-18T04:01:54;16.77;;;9.03;;
5303;SDS011;2674;49.722;10.892;2022-11-18T04:04:34;16.40;;;8.80;;
5303;SDS011;2674;49.722;10.892;2022-11-18T04:09:28;14.73;;;10.50;;
5303;SDS011;2674;49.722;10.892;2022-11-18T04:12:01;19.90;;;11.13;;
5303;SDS011;2674;49.722;10.892;2022-11-18T04:14:30;19.77;;;10.87;;
5303;SDS011;2674;49.722;10.892;2022-11-18T04:16:59;19.67;;;13.33;;
5303;SDS011;2674;49.722;10.892;2022-11-18T04:19:29;16.47;;;10.63;;
5303;SDS011;2674;49.722;10.892;2022-11-18T04:21:55;16.90;;;9.77;;
5303;SDS011;2674;49.722;10.892;2022-11-18T04:24:21;15.87;;;10.73;;
5303;SDS011;2674;49.722;10.892;2022-11-18T04:26:46;18.63;;;11.63;;
5303;SDS011;2674;49.722;10.892;2022-11-18T04:29:12;16.40;;;11.00;;
5303;SDS011;2674;49.722;10.892;2022-11-18T04:31:38;21.70;;;9.97;;
5303;SDS011;2674;49.722;10.892;2022-11-18T04:34:04;21.00;;;10.93;;
5303;SDS011;2674;49.722;10.892;2022-11-18T04:36:30;22.13;;;11.53;;
5303;SDS011;2674;49.722;10.892;2022-11-18T04:38:56;15.93;;;11.27;;
5303;SDS011;2674;49.722;10.892;2022-11-18T04:41:22;19.60;;;10.80;;
5303;SDS011;2674;49.722;10.892;2022-11-18T04:44:07;19.73;;;10.87;;
5303;SDS011;2674;49.722;10.892;2022-11-18T04:46:38;16.33;;;12.07;;
5303;SDS011;2674;49.722;10.892;2022-11-18T04:49:07;20.87;;;10.53;;
5303;SDS011;2674;49.722;10.892;2022-11-18T04:51:33;24.90;;;12.17;;
5303;SDS011;2674;49.722;10.892;2022-11-18T04:53:59;18.93;;;12.20;;
5303;SDS011;2674;49.722;10.892;2022-11-18T04:56:26;21.00;;;12.57;;
5303;SDS011;2674;49.722;10.892;2022-11-18T04:58:52;22.17;;;11.70;;
5303;SDS011;2674;49.722;10.892;2022-11-18T05:01:18;21.60;;;12.90;;
5303;SDS011;2674;49.722;10.892;2022-11-18T05:03:43;21.23;;;11.73;;
5303;SDS011;2674;49.722;10.892;2022-11-18T05:06:10;20.80;;;11.70;;
5303;SDS011;2674;49.722;10.892;2022-11-18T05:08:36;22.63;;;11.53;;
5303;SDS011;2674;49.722;10.892;2022-11-18T05:11:05;18.13;;;11.20;;
5303;SDS011;2674;49.722;10.892;2022-11-18T05:13:50;16.77;;;10.27;;
5303;SDS011;2674;49.722;10.892;2022-11-18T05:16:16;22.20;;;11.30;;
5303;SDS011;2674;49.722;10.892;2022-11-18T05:18:42;22.73;;;11.43;;
5303;SDS011;2674;49.722;10.892;2022-11-18T05:21:08;20.43;;;12.20;;
5303;SDS011;2674;49.722;10.892;2022-11-18T05:23:34;23.70;;;10.43;;
5303;SDS011;2674;49.722;10.892;2022-11-18T05:26:04;18.83;;;10.73;;
5303;SDS011;2674;49.722;10.892;2022-11-18T05:28:31;17.87;;;11.10;;
5303;SDS011;2674;49.722;10.892;2022-11-18T05:30:58;20.83;;;11.03;;
5303;SDS011;2674;49.722;10.892;2022-11-18T05:33:24;23.43;;;10.97;;
5303;SDS011;2674;49.722;10.892;2022-11-18T05:35:50;17.60;;;11.20;;
5303;SDS011;2674;49.722;10.892;2022-11-18T05:38:16;20.33;;;11.30;;
5303;SDS011;2674;49.722;10.892;2022-11-18T05:40:41;18.67;;;12.23;;
5303;SDS011;2674;49.722;10.892;2022-11-18T05:43:08;17.80;;;11.80;;
5303;SDS011;2674;49.722;10.892;2022-11-18T05:45:42;20.00;;;11.10;;
5303;SDS011;2674;49.722;10.892;2022-11-18T05:48:08;22.10;;;12.70;;
5303;SDS011;2674;49.722;10.892;2022-11-18T05:50:36;21.00;;;12.17;;
5303;SDS011;2674;49.722;10.892;2022-11-18T05:53:02;21.33;;;13.37;;
5303;SDS011;2674;49.722;10.892;2022-11-18T05:55:30;20.93;;;13.00;;
5303;SDS011;2674;49.722;10.892;2022-11-18T05:58:04;18.40;;;10.93;;
5303;SDS011;2674;49.722;10.892;2022-11-18T06:00:29;19.93;;;12.30;;
5303;SDS011;2674;49.722;10.892;2022-11-18T06:02:56;17.20;;;11.50;;
5303;SDS011;2674;49.722;10.892;2022-11-18T06:05:23;18.77;;;12.37;;
5303;SDS011;2674;49.722;10.892;2022-11-18T06:07:51;18.10;;;10.83;;
5303;SDS011;2674;49.722;10.892;2022-11-18T06:10:20;21.97;;;10.73;;
5303;SDS011;2674;49.722;10.892;2022-11-18T06:12:54;15.80;;;10.50;;
5303;SDS011;2674;49.722;10.892;2022-11-18T06:15:26;19.37;;;12.50;;
5303;SDS011;2674;49.722;10.892;2022-11-18T06:17:58;15.90;;;10.37;;
5303;SDS011;2674;49.722;10.892;2022-11-18T06:20:27;16.80;;;11.67;;
5303;SDS011;2674;49.722;10.892;2022-11-18T06:22:54;17.60;;;10.57;;
5303;SDS011;2674;49.722;10.892;2022-11-18T06:25:22;16.83;;;11.53;;
5303;SDS011;2674;49.722;10.892;2022-11-18T06:27:49;17.07;;;11.13;;
5303;SDS011;2674;49.722;10.892;2022-11-18T06:30:18;17.63;;;10.33;;
5303;SDS011;2674;49.722;10.892;2022-11-18T06:32:43;17.20;;;10.20;;
5303;SDS011;2674;49.722;10.892;2022-11-18T06:35:09;16.77;;;10.40;;
5303;SDS011;2674;49.722;10.892;2022-11-18T06:37:35;16.30;;;11.00;;
5303;SDS011;2674;49.722;10.892;2022-11-18T06:40:02;22.77;;;12.10;;
5303;SDS011;2674;49.722;10.892;2022-11-18T06:42:28;20.57;;;12.50;;
5303;SDS011;2674;49.722;10.892;2022-11-18T06:45:12;16.23;;;12.00;;
5303;SDS011;2674;49.722;10.892;2022-11-18T06:47:38;22.03;;;13.67;;
5303;SDS011;2674;49.722;10.892;2022-11-18T06:50:04;19.03;;;13.40;;
5303;SDS011;2674;49.722;10.892;2022-11-18T06:52:30;19.70;;;13.77;;
5303;SDS011;2674;49.722;10.892;2022-11-18T06:54:56;25.93;;;14.67;;
5303;SDS011;2674;49.722;10.892;2022-11-18T06:57:22;18.43;;;13.37;;
5303;SDS011;2674;49.722;10.892;2022-11-18T06:59:48;28.13;;;14.60;;
5303;SDS011;2674;49.722;10.892;2022-11-18T07:02:14;24.93;;;16.17;;
5303;SDS011;2674;49.722;10.892;2022-11-18T07:04:43;24.80;;;15.70;;
5303;SDS011;2674;49.722;10.892;2022-11-18T07:07:09;22.30;;;15.07;;
5303;SDS011;2674;49.722;10.892;2022-11-18T07:09:35;22.25;;;16.10;;
5303;SDS011;2674;49.722;10.892;2022-11-18T07:12:02;23.53;;;13.63;;
5303;SDS011;2674;49.722;10.892;2022-11-18T07:14:29;21.83;;;14.77;;
5303;SDS011;2674;49.722;10.892;2022-11-18T07:16:55;19.80;;;12.30;;
5303;SDS011;2674;49.722;10.892;2022-11-18T07:19:21;20.10;;;11.87;;
5303;SDS011;2674;49.722;10.892;2022-11-18T07:21:47;18.03;;;9.80;;
5303;SDS011;2674;49.722;10.892;2022-11-18T07:24:13;16.13;;;11.07;;
5303;SDS011;2674;49.722;10.892;2022-11-18T07:26:40;18.23;;;11.30;;
5303;SDS011;2674;49.722;10.892;2022-11-18T07:29:07;22.80;;;11.13;;
5303;SDS011;2674;49.722;10.892;2022-11-18T07:31:34;14.53;;;10.90;;
5303;SDS011;2674;49.722;10.892;2022-11-18T07:34:04;17.10;;;9.57;;
5303;SDS011;2674;49.722;10.892;2022-11-18T07:36:30;12.43;;;8.60;;
5303;SDS011;2674;49.722;10.892;2022-11-18T07:39:00;12.90;;;9.50;;
5303;SDS011;2674;49.722;10.892;2022-11-18T07:41:27;12.07;;;9.63;;
5303;SDS011;2674;49.722;10.892;2022-11-18T07:43:54;16.40;;;10.93;;
5303;SDS011;2674;49.722;10.892;2022-11-18T07:48:58;15.40;;;12.70;;
5303;SDS011;2674;49.722;10.892;2022-11-18T07:51:26;15.57;;;13.20;;
5303;SDS011;2674;49.722;10.892;2022-11-18T07:53:57;20.47;;;14.10;;
5303;SDS011;2674;49.722;10.892;2022-11-18T07:56:23;19.33;;;13.87;;
5303;SDS011;2674;49.722;10.892;2022-11-18T07:58:53;13.03;;;11.43;;
5303;SDS011;2674;49.722;10.892;2022-11-18T08:01:20;17.77;;;11.90;;
5303;SDS011;2674;49.722;10.892;2022-11-18T08:03:47;15.93;;;9.83;;
5303;SDS011;2674;49.722;10.892;2022-11-18T08:06:15;12.17;;;8.73;;
5303;SDS011;2674;49.722;10.892;2022-11-18T08:08:42;12.97;;;7.97;;
5303;SDS011;2674;49.722;10.892;2022-11-18T08:11:09;8.87;;;7.97;;
5303;SDS011;2674;49.722;10.892;2022-11-18T08:13:37;9.13;;;6.83;;
5303;SDS011;2674;49.722;10.892;2022-11-18T08:16:03;9.50;;;6.57;;
5303;SDS011;2674;49.722;10.892;2022-11-18T08:18:35;7.70;;;5.67;;
5303;SDS011;2674;49.722;10.892;2022-11-18T08:21:02;6.30;;;5.70;;
5303;SDS011;2674;49.722;10.892;2022-11-18T08:23:28;5.47;;;4.97;;
5303;SDS011;2674;49.722;10.892;2022-11-18T08:25:59;5.30;;;4.80;;
5303;SDS011;2674;49.722;10.892;2022-11-18T08:28:33;4.93;;;3.90;;
5303;SDS011;2674;49.722;10.892;2022-11-18T08:30:59;3.33;;;3.03;;
5303;SDS011;2674;49.722;10.892;2022-11-18T08:33:32;7.00;;;4.50;;
5303;SDS011;2674;49.722;10.892;2022-11-18T08:36:04;3.07;;;2.87;;
5303;SDS011;2674;49.722;10.892;2022-11-18T08:38:33;2.40;;;1.93;;
5303;SDS011;2674;49.722;10.892;2022-11-18T08:41:03;1.90;;;1.80;;
5303;SDS011;2674;49.722;10.892;2022-11-18T08:43:30;2.37;;;2.23;;
5303;SDS011;2674;49.722;10.892;2022-11-18T08:45:57;2.40;;;1.50;;
5303;SDS011;2674;49.722;10.892;2022-11-18T08:48:26;2.10;;;1.90;;
5303;SDS011;2674;49.722;10.892;2022-11-18T08:50:51;2.93;;;2.20;;
5303;SDS011;2674;49.722;10.892;2022-11-18T08:53:19;4.47;;;2.10;;
5303;SDS011;2674;49.722;10.892;2022-11-18T08:55:45;2.30;;;1.70;;
5303;SDS011;2674;49.722;10.892;2022-11-18T08:58:10;2.33;;;2.13;;
5303;SDS011;2674;49.722;10.892;2022-11-18T09:00:36;2.73;;;1.47;;
5303;SDS011;2674;49.722;10.892;2022-11-18T09:03:03;1.53;;;1.40;;
5303;SDS011;2674;49.722;10.892;2022-11-18T09:05:29;1.20;;;1.20;;
5303;SDS011;2674;49.722;10.892;2022-11-18T09:07:54;1.20;;;1.20;;
5303;SDS011;2674;49.722;10.892;2022-11-18T09:10:20;1.30;;;1.20;;
5303;SDS011;2674;49.722;10.892;2022-11-18T09:12:46;1.20;;;1.10;;
5303;SDS011;2674;49.722;10.892;2022-11-18T09:15:12;1.03;;;0.90;;
5303;SDS011;2674;49.722;10.892;2022-11-18T09:17:38;1.10;;;1.10;;
5303;SDS011;2674;49.722;10.892;2022-11-18T09:20:04;1.40;;;1.40;;
5303;SDS011;2674;49.722;10.892;2022-11-18T09:22:30;2.00;;;1.33;;
5303;SDS011;2674;49.722;10.892;2022-11-18T09:24:56;1.13;;;1.13;;
5303;SDS011;2674;49.722;10.892;2022-11-18T09:27:22;1.13;;;1.03;;
5303;SDS011;2674;49.722;10.892;2022-11-18T09:29:47;1.10;;;1.00;;
5303;SDS011;2674;49.722;10.892;2022-11-18T09:32:13;0.70;;;0.70;;
5303;SDS011;2674;49.722;10.892;2022-11-18T09:34:39;1.30;;;1.10;;
5303;SDS011;2674;49.722;10.892;2022-11-18T09:37:05;1.60;;;1.50;;
5303;SDS011;2674;49.722;10.892;2022-11-18T09:39:34;1.00;;;1.00;;
5303;SDS011;2674;49.722;10.892;2022-11-18T09:42:08;2.50;;;1.10;;
5303;SDS011;2674;49.722;10.892;2022-11-18T09:49:51;1.00;;;1.00;;
5303;SDS011;2674;49.722;10.892;2022-11-18T09:52:25;4.20;;;1.47;;
5303;SDS011;2674;49.722;10.892;2022-11-18T09:54:55;0.70;;;0.70;;
5303;SDS011;2674;49.722;10.892;2022-11-18T09:57:28;1.17;;;1.17;;
5303;SDS011;2674;49.722;10.892;2022-11-18T09:59:59;1.00;;;0.97;;
5303;SDS011;2674;49.722;10.892;2022-11-18T10:05:17;2.77;;;1.50;;
5303;SDS011;2674;49.722;10.892;2022-11-18T10:08:07;1.10;;;1.10;;
5303;SDS011;2674;49.722;10.892;2022-11-18T10:13:12;2.00;;;1.00;;
5303;SDS011;2674;49.722;10.892;2022-11-18T10:24:40;4.57;;;4.17;;
5303;SDS011;2674;49.722;10.892;2022-11-18T10:27:12;3.40;;;3.10;;
5303;SDS011;2674;49.722;10.892;2022-11-18T10:29:39;5.20;;;4.13;;
5303;SDS011;2674;49.722;10.892;2022-11-18T10:32:07;4.07;;;3.40;;
5303;SDS011;2674;49.722;10.892;2022-11-18T10:37:46;5.70;;;4.30;;
5303;SDS011;2674;49.722;10.892;2022-11-18T10:40:42;8.47;;;4.87;;
5303;SDS011;2674;49.722;10.892;2022-11-18T10:46:27;7.30;;;4.30;;
5303;SDS011;2674;49.722;10.892;2022-11-18T10:52:07;8.17;;;5.27;;
5303;SDS011;2674;49.722;10.892;2022-11-18T10:54:35;3.17;;;2.87;;
5303;SDS011;2674;49.722;10.892;2022-11-18T10:57:06;9.03;;;2.93;;
5303;SDS011;2674;49.722;10.892;2022-11-18T10:59:51;3.27;;;2.97;;
5303;SDS011;2674;49.722;10.892;2022-11-18T11:04:57;3.13;;;2.93;;
5303;SDS011;2674;49.722;10.892;2022-11-18T11:07:37;2.70;;;2.50;;
5303;SDS011;2674;49.722;10.892;2022-11-18T11:12:32;2.63;;;2.43;;
5303;SDS011;2674;49.722;10.892;2022-11-18T11:15:10;2.33;;;2.20;;
5303;SDS011;2674;49.722;10.892;2022-11-18T11:17:47;2.60;;;2.03;;
5303;SDS011;2674;49.722;10.892;2022-11-18T11:20:35;2.30;;;2.20;;
5303;SDS011;2674;49.722;10.892;2022-11-18T11:23:06;2.03;;;1.80;;
5303;SDS011;2674;49.722;10.892;2022-11-18T11:25:38;2.70;;;2.00;;
5303;SDS011;2674;49.722;10.892;2022-11-18T11:28:13;2.50;;;1.77;;
5303;SDS011;2674;49.722;10.892;2022-11-18T11:49:48;4.20;;;3.50;;
5303;SDS011;2674;49.722;10.892;2022-11-18T11:55:45;5.07;;;3.53;;
5303;SDS011;2674;49.722;10.892;2022-11-18T11:58:36;3.80;;;3.50;;
5303;SDS011;2674;49.722;10.892;2022-11-18T12:01:39;5.23;;;3.50;;
5303;SDS011;2674;49.722;10.892;2022-11-18T12:06:54;3.80;;;3.40;;
5303;SDS011;2674;49.722;10.892;2022-11-18T12:17:52;3.93;;;3.63;;
5303;SDS011;2674;49.722;10.892;2022-11-18T12:20:42;3.90;;;3.60;;
5303;SDS011;2674;49.722;10.892;2022-11-18T12:23:18;3.93;;;3.60;;
5303;SDS011;2674;49.722;10.892;2022-11-18T12:28:22;6.03;;;4.20;;
5303;SDS011;2674;49.722;10.892;2022-11-18T12:36:30;3.77;;;3.23;;
5303;SDS011;2674;49.722;10.892;2022-11-18T12:41:55;3.83;;;3.53;;
5303;SDS011;2674;49.722;10.892;2022-11-18T12:44:44;6.63;;;3.57;;
5303;SDS011;2674;49.722;10.892;2022-11-18T12:47:55;6.63;;;4.60;;
5303;SDS011;2674;49.722;10.892;2022-11-18T12:54:59;4.20;;;3.10;;
5303;SDS011;2674;49.722;10.892;2022-11-18T12:57:28;5.67;;;3.63;;
5303;SDS011;2674;49.722;10.892;2022-11-18T12:59:57;3.53;;;3.33;;
5303;SDS011;2674;49.722;10.892;2022-11-18T13:02:39;4.73;;;4.33;;
5303;SDS011;2674;49.722;10.892;2022-11-18T13:05:21;12.23;;;7.00;;
5303;SDS011;2674;49.722;10.892;2022-11-18T13:07:50;4.53;;;4.07;;
5303;SDS011;2674;49.722;10.892;2022-11-18T13:11:03;2.63;;;2.43;;
5303;SDS011;2674;49.722;10.892;2022-11-18T13:13:59;5.97;;;4.37;;
5303;SDS011;2674;49.722;10.892;2022-11-18T13:16:45;3.70;;;3.40;;
5303;SDS011;2674;49.722;10.892;2022-11-18T13:19:53;2.80;;;2.70;;
5303;SDS011;2674;49.722;10.892;2022-11-18T13:22:20;3.03;;;2.43;;
5303;SDS011;2674;49.722;10.892;2022-11-18T13:25:20;2.50;;;2.30;;
5303;SDS011;2674;49.722;10.892;2022-11-18T13:27:56;3.60;;;3.30;;
5303;SDS011;2674;49.722;10.892;2022-11-18T13:30:24;2.97;;;2.70;;
5303;SDS011;2674;49.722;10.892;2022-11-18T13:32:50;2.33;;;2.23;;
5303;SDS011;2674;49.722;10.892;2022-11-18T13:35:19;4.20;;;3.40;;
5303;SDS011;2674;49.722;10.892;2022-11-18T13:38:22;6.27;;;4.10;;
5303;SDS011;2674;49.722;10.892;2022-11-18T13:40:44;5.73;;;4.30;;
5303;SDS011;2674;49.722;10.892;2022-11-18T13:43:35;5.30;;;2.83;;
5303;SDS011;2674;49.722;10.892;2022-11-18T13:46:14;2.57;;;2.37;;
5303;SDS011;2674;49.722;10.892;2022-11-18T13:48:48;3.50;;;2.97;;
5303;SDS011;2674;49.722;10.892;2022-11-18T13:51:19;2.50;;;2.33;;
5303;SDS011;2674;49.722;10.892;2022-11-18T13:53:46;5.50;;;2.60;;
5303;SDS011;2674;49.722;10.892;2022-11-18T13:58:50;3.73;;;3.23;;
5303;SDS011;2674;49.722;10.892;2022-11-18T14:06:37;3.33;;;3.03;;
5303;SDS011;2674;49.722;10.892;2022-11-18T14:14:39;3.65;;;2.95;;
5303;SDS011;2674;49.722;10.892;2022-11-18T14:17:17;3.00;;;2.73;;
5303;SDS011;2674;49.722;10.892;2022-11-18T14:19:49;2.53;;;2.33;;
5303;SDS011;2674;49.722;10.892;2022-11-18T14:24:54;3.20;;;2.90;;
5303;SDS011;2674;49.722;10.892;2022-11-18T14:29:58;3.93;;;3.10;;
5303;SDS011;2674;49.722;10.892;2022-11-18T14:32:25;4.43;;;3.27;;
5303;SDS011;2674;49.722;10.892;2022-11-18T14:34:58;3.20;;;3.00;;
5303;SDS011;2674;49.722;10.892;2022-11-18T14:37:24;3.63;;;3.37;;
5303;SDS011;2674;49.722;10.892;2022-11-18T14:39:55;3.80;;;3.50;;
5303;SDS011;2674;49.722;10.892;2022-11-18T14:42:22;3.17;;;2.97;;
5303;SDS011;2674;49.722;10.892;2022-11-18T14:44:49;2.60;;;2.50;;
5303;SDS011;2674;49.722;10.892;2022-11-18T14:47:25;2.70;;;2.50;;
5303;SDS011;2674;49.722;10.892;2022-11-18T14:49:54;3.73;;;3.00;;
5303;SDS011;2674;49.722;10.892;2022-11-18T14:52:20;5.00;;;4.50;;
5303;SDS011;2674;49.722;10.892;2022-11-18T14:54:45;7.43;;;3.63;;
5303;SDS011;2674;49.722;10.892;2022-11-18T14:57:13;6.50;;;3.77;;
5303;SDS011;2674;49.722;10.892;2022-11-18T14:59:41;11.70;;;6.13;;
5303;SDS011;2674;49.722;10.892;2022-11-18T15:02:14;2.73;;;2.27;;
5303;SDS011;2674;49.722;10.892;2022-11-18T15:04:41;3.10;;;2.90;;
5303;SDS011;2674;49.722;10.892;2022-11-18T15:07:12;4.77;;;2.90;;
5303;SDS011;2674;49.722;10.892;2022-11-18T15:09:39;6.97;;;3.73;;
5303;SDS011;2674;49.722;10.892;2022-11-18T15:12:05;4.20;;;3.60;;
5303;SDS011;2674;49.722;10.892;2022-11-18T15:14:33;4.97;;;3.70;;
5303;SDS011;2674;49.722;10.892;2022-11-18T15:17:00;7.50;;;4.30;;
5303;SDS011;2674;49.722;10.892;2022-11-18T15:19:26;7.13;;;4.90;;
5303;SDS011;2674;49.722;10.892;2022-11-18T15:21:52;10.43;;;6.00;;
5303;SDS011;2674;49.722;10.892;2022-11-18T15:24:18;6.97;;;4.17;;
5303;SDS011;2674;49.722;10.892;2022-11-18T15:26:44;7.87;;;6.00;;
5303;SDS011;2674;49.722;10.892;2022-11-18T15:29:18;2.93;;;2.47;;
5303;SDS011;2674;49.722;10.892;2022-11-18T15:31:48;10.30;;;6.80;;
5303;SDS011;2674;49.722;10.892;2022-11-18T15:34:17;18.60;;;12.10;;
5303;SDS011;2674;49.722;10.892;2022-11-18T15:36:44;12.67;;;10.00;;
5303;SDS011;2674;49.722;10.892;2022-11-18T15:39:10;17.03;;;11.00;;
5303;SDS011;2674;49.722;10.892;2022-11-18T15:41:37;6.60;;;5.80;;
5303;SDS011;2674;49.722;10.892;2022-11-18T15:44:05;51.07;;;33.73;;
5303;SDS011;2674;49.722;10.892;2022-11-18T15:46:31;25.10;;;15.17;;
5303;SDS011;2674;49.722;10.892;2022-11-18T15:49:00;6.07;;;4.50;;
5303;SDS011;2674;49.722;10.892;2022-11-18T15:51:27;3.27;;;2.50;;
5303;SDS011;2674;49.722;10.892;2022-11-18T15:53:53;3.50;;;3.27;;
5303;SDS011;2674;49.722;10.892;2022-11-18T15:58:55;1.30;;;1.30;;
5303;SDS011;2674;49.722;10.892;2022-11-18T16:01:30;1.77;;;1.67;;
5303;SDS011;2674;49.722;10.892;2022-11-18T16:03:58;1.20;;;1.10;;
5303;SDS011;2674;49.722;10.892;2022-11-18T16:06:25;5.20;;;3.10;;
5303;SDS011;2674;49.722;10.892;2022-11-18T16:08:51;1.30;;;1.30;;
5303;SDS011;2674;49.722;10.892;2022-11-18T16:11:18;3.47;;;3.17;;
5303;SDS011;2674;49.722;10.892;2022-11-18T16:14:03;2.67;;;2.47;;
5303;SDS011;2674;49.722;10.892;2022-11-18T16:16:30;4.80;;;4.40;;
5303;SDS011;2674;49.722;10.892;2022-11-18T16:18:57;3.60;;;3.40;;
5303;SDS011;2674;49.722;10.892;2022-11-18T16:21:27;9.37;;;5.90;;
5303;SDS011;2674;49.722;10.892;2022-11-18T16:23:58;3.13;;;2.83;;
5303;SDS011;2674;49.722;10.892;2022-11-18T16:26:28;2.30;;;2.20;;
5303;SDS011;2674;49.722;10.892;2022-11-18T16:28:55;2.03;;;1.93;;
5303;SDS011;2674;49.722;10.892;2022-11-18T16:31:21;4.77;;;3.23;;
5303;SDS011;2674;49.722;10.892;2022-11-18T16:34:13;4.27;;;2.60;;
5303;SDS011;2674;49.722;10.892;2022-11-18T16:36:44;2.13;;;2.03;;
5303;SDS011;2674;49.722;10.892;2022-11-18T16:39:13;2.03;;;1.30;;
5303;SDS011;2674;49.722;10.892;2022-11-18T16:41:43;1.33;;;0.70;;
5303;SDS011;2674;49.722;10.892;2022-11-18T16:44:11;2.00;;;1.90;;
5303;SDS011;2674;49.722;10.892;2022-11-18T16:46:39;2.90;;;2.03;;
5303;SDS011;2674;49.722;10.892;2022-11-18T16:49:06;3.00;;;2.80;;
5303;SDS011;2674;49.722;10.892;2022-11-18T16:51:36;1.43;;;1.43;;
5303;SDS011;2674;49.722;10.892;2022-11-18T16:54:06;1.67;;;1.50;;
5303;SDS011;2674;49.722;10.892;2022-11-18T16:56:37;1.13;;;1.13;;
5303;SDS011;2674;49.722;10.892;2022-11-18T16:59:06;5.90;;;2.97;;
5303;SDS011;2674;49.722;10.892;2022-11-18T17:01:35;5.00;;;4.50;;
5303;SDS011;2674;49.722;10.892;2022-11-18T17:04:01;2.17;;;1.97;;
5303;SDS011;2674;49.722;10.892;2022-11-18T17:06:36;3.37;;;3.10;;
5303;SDS011;2674;49.722;10.892;2022-11-18T17:09:03;3.57;;;1.40;;
5303;SDS011;2674;49.722;10.892;2022-11-18T17:11:29;9.97;;;4.97;;
5303;SDS011;2674;49.722;10.892;2022-11-18T17:13:55;2.83;;;2.10;;
5303;SDS011;2674;49.722;10.892;2022-11-18T17:16:21;5.87;;;5.27;;
5303;SDS011;2674;49.722;10.892;2022-11-18T17:18:52;11.20;;;10.20;;
5303;SDS011;2674;49.722;10.892;2022-11-18T17:21:19;4.20;;;3.90;;
5303;SDS011;2674;49.722;10.892;2022-11-18T17:23:46;4.07;;;3.73;;
5303;SDS011;2674;49.722;10.892;2022-11-18T17:26:14;3.73;;;3.53;;
5303;SDS011;2674;49.722;10.892;2022-11-18T17:28:41;2.80;;;2.70;;
5303;SDS011;2674;49.722;10.892;2022-11-18T17:31:08;5.60;;;3.83;;
5303;SDS011;2674;49.722;10.892;2022-11-18T17:33:39;2.90;;;2.70;;
5303;SDS011;2674;49.722;10.892;2022-11-18T17:36:09;1.60;;;1.50;;
5303;SDS011;2674;49.722;10.892;2022-11-18T17:38:37;3.23;;;2.93;;
5303;SDS011;2674;49.722;10.892;2022-11-18T17:41:05;3.70;;;3.40;;
5303;SDS011;2674;49.722;10.892;2022-11-18T17:43:33;3.10;;;2.80;;
5303;SDS011;2674;49.722;10.892;2022-11-18T17:45:59;3.57;;;3.27;;
5303;SDS011;2674;49.722;10.892;2022-11-18T17:48:27;8.03;;;3.70;;
5303;SDS011;2674;49.722;10.892;2022-11-18T17:51:01;17.63;;;8.20;;
5303;SDS011;2674;49.722;10.892;2022-11-18T17:53:30;2.83;;;2.63;;
5303;SDS011;2674;49.722;10.892;2022-11-18T17:55:56;2.37;;;2.27;;
5303;SDS011;2674;49.722;10.892;2022-11-18T17:58:23;3.20;;;2.40;;
5303;SDS011;2674;49.722;10.892;2022-11-18T18:00:48;2.30;;;2.10;;
5303;SDS011;2674;49.722;10.892;2022-11-18T18:03:14;8.90;;;5.17;;
5303;SDS011;2674;49.722;10.892;2022-11-18T18:05:40;4.03;;;3.37;;
5303;SDS011;2674;49.722;10.892;2022-11-18T18:08:06;4.20;;;2.77;;
5303;SDS011;2674;49.722;10.892;2022-11-18T18:10:36;2.27;;;2.17;;
5303;SDS011;2674;49.722;10.892;2022-11-18T18:13:04;11.50;;;8.67;;
5303;SDS011;2674;49.722;10.892;2022-11-18T18:15:57;10.73;;;9.00;;
5303;SDS011;2674;49.722;10.892;2022-11-18T18:18:24;6.27;;;5.67;;
5303;SDS011;2674;49.722;10.892;2022-11-18T18:20:50;3.27;;;3.00;;
5303;SDS011;2674;49.722;10.892;2022-11-18T18:23:16;7.90;;;7.30;;
5303;SDS011;2674;49.722;10.892;2022-11-18T18:25:41;9.63;;;8.63;;
5303;SDS011;2674;49.722;10.892;2022-11-18T18:28:07;12.13;;;11.17;;
5303;SDS011;2674;49.722;10.892;2022-11-18T18:30:33;5.47;;;4.87;;
5303;SDS011;2674;49.722;10.892;2022-11-18T18:32:59;7.87;;;6.40;;
5303;SDS011;2674;49.722;10.892;2022-11-18T18:35:25;10.00;;;8.63;;
5303;SDS011;2674;49.722;10.892;2022-11-18T18:37:51;6.47;;;5.30;;
5303;SDS011;2674;49.722;10.892;2022-11-18T18:40:17;4.57;;;4.03;;
5303;SDS011;2674;49.722;10.892;2022-11-18T18:42:43;6.60;;;4.60;;
5303;SDS011;2674;49.722;10.892;2022-11-18T18:45:09;5.20;;;4.20;;
5303;SDS011;2674;49.722;10.892;2022-11-18T18:47:53;6.60;;;5.30;;
5303;SDS011;2674;49.722;10.892;2022-11-18T18:50:30;4.00;;;3.70;;
5303;SDS011;2674;49.722;10.892;2022-11-18T18:52:56;2.77;;;2.57;;
5303;SDS011;2674;49.722;10.892;2022-11-18T18:55:22;4.20;;;3.43;;
5303;SDS011;2674;49.722;10.892;2022-11-18T18:57:51;2.70;;;2.50;;
5303;SDS011;2674;49.722;10.892;2022-11-18T19:00:21;3.38;;;3.15;;
5303;SDS011;2674;49.722;10.892;2022-11-18T19:02:47;7.23;;;3.30;;
5303;SDS011;2674;49.722;10.892;2022-11-18T19:05:12;17.23;;;4.20;;
5303;SDS011;2674;49.722;10.892;2022-11-18T19:10:14;3.13;;;2.80;;
5303;SDS011;2674;49.722;10.892;2022-11-18T19:12:40;3.80;;;3.37;;
5303;SDS011;2674;49.722;10.892;2022-11-18T19:15:11;3.97;;;3.57;;
5303;SDS011;2674;49.722;10.892;2022-11-18T19:17:40;3.60;;;3.30;;
5303;SDS011;2674;49.722;10.892;2022-11-18T19:20:06;3.60;;;3.27;;
5303;SDS011;2674;49.722;10.892;2022-11-18T19:22:53;4.50;;;3.80;;
5303;SDS011;2674;49.722;10.892;2022-11-18T19:25:19;5.63;;;4.30;;
5303;SDS011;2674;49.722;10.892;2022-11-18T19:27:45;5.00;;;4.10;;
5303;SDS011;2674;49.722;10.892;2022-11-18T19:30:11;3.70;;;3.43;;
5303;SDS011;2674;49.722;10.892;2022-11-18T19:32:37;5.53;;;4.00;;
5303;SDS011;2674;49.722;10.892;2022-11-18T19:35:04;5.57;;;4.20;;